createdAt,value
2018-10-16T00:01:45.022Z,5.29
2018-10-16T00:04:14.247Z,5.24
2018-10-16T00:06:43.461Z,5.21
2018-10-16T00:09:12.704Z,5.20
2018-10-16T00:12:07.026Z,5.20
2018-10-16T00:14:36.258Z,5.12
2018-10-16T00:17:05.944Z,5.11
2018-10-16T00:19:35.228Z,5.06
2018-10-16T00:27:02.570Z,5.08
2018-10-16T00:29:31.794Z,5.07
2018-10-16T00:32:01.098Z,5.01
2018-10-16T00:34:30.307Z,5.07
2018-10-16T00:36:59.540Z,5.04
2018-10-16T00:39:28.772Z,5.03
2018-10-16T00:41:58.480Z,4.94
2018-10-16T00:44:27.700Z,4.94
2018-10-16T00:46:56.911Z,5.21
2018-10-16T00:49:26.199Z,4.96
2018-10-16T00:51:55.413Z,4.87
2018-10-16T00:54:24.634Z,4.90
2018-10-16T00:56:53.873Z,4.89
2018-10-16T00:59:23.074Z,4.84
2018-10-16T01:01:52.346Z,4.85
2018-10-16T01:04:21.556Z,4.86
2018-10-16T01:06:50.794Z,4.97
2018-10-16T01:09:20.012Z,4.78
2018-10-16T01:11:49.283Z,4.91
2018-10-16T01:14:18.486Z,4.74
2018-10-16T01:16:47.731Z,4.66
2018-10-16T01:19:17.053Z,4.67
2018-10-16T01:21:46.292Z,4.60
2018-10-16T01:24:15.615Z,4.54
2018-10-16T01:26:44.823Z,4.53
2018-10-16T01:29:14.047Z,4.49
2018-10-16T01:31:43.307Z,4.47
2018-10-16T01:34:12.543Z,4.64
2018-10-16T01:36:41.785Z,4.57
2018-10-16T01:39:11.051Z,4.48
2018-10-16T01:41:40.305Z,4.35
2018-10-16T01:44:09.521Z,4.31
2018-10-16T01:46:38.703Z,4.36
2018-10-16T01:49:07.946Z,4.33
2018-10-16T01:51:37.146Z,4.25
2018-10-16T01:54:06.426Z,4.32
2018-10-16T01:56:35.692Z,4.27
2018-10-16T01:59:04.962Z,4.34
2018-10-16T02:01:34.218Z,4.32
2018-10-16T02:04:03.423Z,4.19
2018-10-16T02:06:32.663Z,4.16
2018-10-16T02:09:02.164Z,4.11
2018-10-16T02:11:31.387Z,4.12
2018-10-16T02:14:00.591Z,4.20
2018-10-16T02:16:29.827Z,4.13
2018-10-16T02:23:56.466Z,3.98
2018-10-16T02:26:25.683Z,4.12
2018-10-16T02:28:56.122Z,4.17
2018-10-16T02:31:25.384Z,3.96
2018-10-16T02:33:54.593Z,3.86
2018-10-16T02:36:23.803Z,3.89
2018-10-16T02:38:53.011Z,3.97
2018-10-16T02:41:22.246Z,3.80
2018-10-16T02:43:51.473Z,3.74
2018-10-16T02:46:20.695Z,3.75
2018-10-16T02:48:49.935Z,3.90
2018-10-16T02:51:19.149Z,3.73
2018-10-16T02:53:48.375Z,3.76
2018-10-16T02:56:17.611Z,3.73
2018-10-16T02:58:46.839Z,3.66
2018-10-16T03:01:16.117Z,3.67
2018-10-16T03:03:45.341Z,3.63
2018-10-16T03:06:14.549Z,3.61
2018-10-16T03:08:43.773Z,3.70
2018-10-16T03:11:13.000Z,3.65
2018-10-16T03:13:42.243Z,3.66
2018-10-16T03:16:11.495Z,3.75
2018-10-16T03:18:40.703Z,3.73
2018-10-16T03:21:09.926Z,3.72
2018-10-16T03:23:39.126Z,3.63
2018-10-16T03:26:08.354Z,3.67
2018-10-16T03:28:37.573Z,3.61
2018-10-16T03:31:06.822Z,3.65
2018-10-16T03:33:36.039Z,3.55
2018-10-16T03:36:05.795Z,3.53
2018-10-16T03:38:35.055Z,3.46
2018-10-16T03:41:04.282Z,3.45
2018-10-16T03:43:35.414Z,3.44
2018-10-16T03:46:04.718Z,3.52
2018-10-16T03:48:33.927Z,3.54
2018-10-16T03:51:03.167Z,3.83
2018-10-16T03:53:32.388Z,3.61
2018-10-16T03:56:01.608Z,3.54
2018-10-16T03:58:30.870Z,3.75
2018-10-16T04:01:00.079Z,3.52
2018-10-16T04:03:29.304Z,3.38
2018-10-16T04:05:58.518Z,3.39
2018-10-16T04:08:27.730Z,3.40
2018-10-16T04:10:56.990Z,3.37
2018-10-16T04:13:26.514Z,3.49
2018-10-16T04:15:55.715Z,3.44
2018-10-16T04:18:24.927Z,3.48
2018-10-16T04:20:54.172Z,3.42
2018-10-16T04:23:23.415Z,3.60
2018-10-16T04:25:52.666Z,3.45
2018-10-16T04:28:21.878Z,3.42
2018-10-16T04:30:51.106Z,3.52
2018-10-16T04:33:20.571Z,3.38
2018-10-16T04:35:49.847Z,3.32
2018-10-16T04:38:19.071Z,3.54
2018-10-16T04:40:48.307Z,3.33
2018-10-16T04:43:17.516Z,3.26
2018-10-16T04:45:46.754Z,3.54
2018-10-16T04:48:15.971Z,3.25
2018-10-16T04:50:45.197Z,3.27
2018-10-16T04:53:14.399Z,3.21
2018-10-16T04:55:43.661Z,3.18
2018-10-16T04:58:12.859Z,3.44
2018-10-16T05:00:42.087Z,3.26
2018-10-16T05:03:11.303Z,3.25
2018-10-16T05:05:41.764Z,3.39
2018-10-16T05:08:11.008Z,3.22
2018-10-16T05:10:40.218Z,3.22
2018-10-16T05:13:09.476Z,3.13
2018-10-16T05:15:38.650Z,3.24
2018-10-16T05:18:07.886Z,3.23
2018-10-16T05:20:37.101Z,3.21
2018-10-16T05:23:06.356Z,3.14
2018-10-16T05:25:35.595Z,3.10
2018-10-16T05:28:04.954Z,3.06
2018-10-16T05:30:34.148Z,3.07
2018-10-16T05:33:03.383Z,3.20
2018-10-16T05:35:32.619Z,3.34
2018-10-16T05:38:01.824Z,3.38
2018-10-16T05:40:31.038Z,3.39
2018-10-16T05:43:00.267Z,3.56
2018-10-16T05:45:31.799Z,3.82
2018-10-16T05:48:01.018Z,3.76
2018-10-16T05:50:30.254Z,3.71
2018-10-16T05:52:59.474Z,3.77
2018-10-16T05:55:28.706Z,3.97
2018-10-16T05:57:57.974Z,3.81
2018-10-16T06:00:40.404Z,3.83
2018-10-16T06:03:09.863Z,4.08
2018-10-16T06:05:39.228Z,4.03
2018-10-16T06:08:08.678Z,4.18
2018-10-16T06:10:38.223Z,4.27
2018-10-16T06:13:07.482Z,4.45
2018-10-16T06:15:36.702Z,4.60
2018-10-16T06:18:06.154Z,4.85
2018-10-16T06:20:35.481Z,5.07
2018-10-16T06:23:04.732Z,5.22
2018-10-16T06:25:33.935Z,5.70
2018-10-16T06:28:24.508Z,6.50
2018-10-16T06:30:53.725Z,6.79
2018-10-16T06:33:26.170Z,7.92
2018-10-16T06:35:55.316Z,9.05
2018-10-16T06:38:24.530Z,9.31
2018-10-16T06:40:53.963Z,11.70
2018-10-16T06:43:22.983Z,11.55
2018-10-16T06:45:52.194Z,12.85
2018-10-16T06:48:21.705Z,14.20
2018-10-16T06:50:50.683Z,15.50
2018-10-16T06:53:20.009Z,15.84
2018-10-16T06:55:49.195Z,15.31
2018-10-16T06:58:18.486Z,13.11
2018-10-16T07:00:47.722Z,11.06
2018-10-16T07:03:16.939Z,9.50
2018-10-16T07:05:46.430Z,9.28
2018-10-16T07:08:15.651Z,9.19
2018-10-16T07:10:44.917Z,9.69
2018-10-16T07:13:14.140Z,10.94
2018-10-16T07:15:43.396Z,11.08
2018-10-16T07:18:12.630Z,10.67
2018-10-16T07:21:12.283Z,11.87
2018-10-16T07:23:41.466Z,11.34
2018-10-16T07:26:10.677Z,11.37
2018-10-16T07:28:39.888Z,13.89
2018-10-16T07:31:09.122Z,18.02
2018-10-16T07:33:38.347Z,19.97
2018-10-16T07:36:07.617Z,20.82
2018-10-16T07:38:36.861Z,21.26
2018-10-16T07:41:06.058Z,21.05
2018-10-16T07:43:35.308Z,21.61
2018-10-16T07:46:04.642Z,21.64
2018-10-16T07:48:33.934Z,21.05
2018-10-16T07:51:03.094Z,22.64
2018-10-16T07:53:32.306Z,22.91
2018-10-16T07:56:01.562Z,22.88
2018-10-16T07:58:30.770Z,23.29
2018-10-16T08:01:00.007Z,22.78
2018-10-16T08:03:29.230Z,23.17
2018-10-16T08:05:58.474Z,23.62
2018-10-16T08:08:27.710Z,23.12
2018-10-16T08:13:25.235Z,24.42
2018-10-16T08:15:54.458Z,24.73
2018-10-16T08:18:23.678Z,24.94
2018-10-16T08:20:52.893Z,26.95
2018-10-16T08:23:22.126Z,27.53
2018-10-16T08:25:51.343Z,26.63
2018-10-16T08:28:20.627Z,26.27
2018-10-16T08:30:49.848Z,25.55
2018-10-16T08:33:19.089Z,26.10
2018-10-16T08:35:48.367Z,25.89
2018-10-16T08:38:29.406Z,26.73
2018-10-16T08:40:58.887Z,27.17
2018-10-16T08:43:50.098Z,26.93
2018-10-16T08:46:36.167Z,27.56
2018-10-16T08:49:22.338Z,29.98
2018-10-16T08:51:54.925Z,29.51
2018-10-16T08:54:24.163Z,31.20
2018-10-16T08:56:53.410Z,29.63
2018-10-16T08:59:22.638Z,32.08
2018-10-16T09:01:51.879Z,34.30
2018-10-16T09:04:21.106Z,32.56
2018-10-16T09:06:50.390Z,32.73
2018-10-16T09:09:19.703Z,32.01
2018-10-16T09:11:49.390Z,32.96
2018-10-16T09:14:18.811Z,34.52
2018-10-16T09:16:48.028Z,35.21
2018-10-16T09:19:17.246Z,32.17
2018-10-16T09:21:46.464Z,32.18
2018-10-16T09:24:15.674Z,30.04
2018-10-16T09:26:44.906Z,28.55
2018-10-16T09:29:14.123Z,28.45
2018-10-16T09:31:43.390Z,28.69
2018-10-16T09:34:12.591Z,25.57
2018-10-16T09:36:41.836Z,23.79
2018-10-16T09:39:11.679Z,23.76
2018-10-16T09:41:40.917Z,23.16
2018-10-16T09:44:10.167Z,22.95
2018-10-16T09:46:39.602Z,21.40
2018-10-16T09:49:08.845Z,21.40
2018-10-16T09:51:38.687Z,21.68
2018-10-16T09:54:07.888Z,21.39
2018-10-16T09:56:37.204Z,21.01
2018-10-16T09:59:06.414Z,21.31
2018-10-16T10:01:40.842Z,21.17
2018-10-16T10:04:10.063Z,21.88
2018-10-16T10:06:39.313Z,22.18
2018-10-16T10:09:11.755Z,22.07
2018-10-16T10:11:41.166Z,21.87
2018-10-16T10:14:10.379Z,22.16
2018-10-16T10:16:40.079Z,21.53
2018-10-16T10:19:09.667Z,21.78
2018-10-16T10:21:38.909Z,21.39
2018-10-16T10:24:08.106Z,22.96
2018-10-16T10:26:37.411Z,24.15
2018-10-16T10:29:06.641Z,25.56
2018-10-16T10:31:35.902Z,26.55
2018-10-16T10:34:05.219Z,30.97
2018-10-16T10:36:34.448Z,31.07
2018-10-16T10:39:04.997Z,29.67
2018-10-16T10:41:34.217Z,31.05
2018-10-16T10:44:05.011Z,31.51
2018-10-16T10:46:34.234Z,30.57
2018-10-16T10:49:03.462Z,28.75
2018-10-16T10:51:32.990Z,29.24
2018-10-16T10:54:01.890Z,32.12
2018-10-16T10:56:31.189Z,31.81
2018-10-16T10:59:00.352Z,28.72
2018-10-16T11:01:29.606Z,28.99
2018-10-16T11:03:58.866Z,28.13
2018-10-16T11:06:28.078Z,28.06
2018-10-16T11:08:57.409Z,28.50
2018-10-16T11:11:26.631Z,30.04
2018-10-16T11:13:55.868Z,31.09
2018-10-16T11:16:25.097Z,32.33
2018-10-16T11:18:54.311Z,28.08
2018-10-16T11:21:23.541Z,28.65
2018-10-16T11:23:52.803Z,30.51
2018-10-16T11:26:22.026Z,30.38
2018-10-16T11:28:51.267Z,31.07
2018-10-16T11:31:20.547Z,33.83
2018-10-16T11:33:49.774Z,32.94
2018-10-16T11:36:18.992Z,33.69
2018-10-16T11:38:48.230Z,31.64
2018-10-16T11:41:17.478Z,30.36
2018-10-16T11:43:47.645Z,29.93
2018-10-16T11:46:16.889Z,30.41
2018-10-16T11:48:46.106Z,29.04
2018-10-16T11:51:15.328Z,27.30
2018-10-16T11:53:44.531Z,28.06
2018-10-16T11:56:13.861Z,27.69
2018-10-16T11:58:42.986Z,27.79
2018-10-16T12:01:12.182Z,27.24
2018-10-16T12:03:41.429Z,29.34
2018-10-16T12:06:10.687Z,29.46
2018-10-16T12:08:39.893Z,31.21
2018-10-16T12:11:09.240Z,29.11
2018-10-16T12:13:38.360Z,28.13
2018-10-16T12:16:07.557Z,29.21
2018-10-16T12:19:10.892Z,27.76
2018-10-16T12:21:40.022Z,26.64
2018-10-16T12:24:09.280Z,27.51
2018-10-16T12:26:38.488Z,26.69
2018-10-16T12:29:07.980Z,25.64
2018-10-16T12:31:37.175Z,28.26
2018-10-16T12:34:08.470Z,27.04
2018-10-16T12:36:37.690Z,26.90
2018-10-16T12:39:09.280Z,27.39
2018-10-16T12:41:38.427Z,28.53
2018-10-16T12:44:07.919Z,29.46
2018-10-16T12:46:37.128Z,26.67
2018-10-16T12:49:06.387Z,28.55
2018-10-16T12:51:35.635Z,27.24
2018-10-16T12:54:05.099Z,27.46
2018-10-16T12:56:34.288Z,26.43
2018-10-16T12:59:04.161Z,26.41
2018-10-16T13:01:33.343Z,26.12
2018-10-16T13:04:02.578Z,26.16
2018-10-16T13:06:31.815Z,26.69
2018-10-16T13:09:01.125Z,26.89
2018-10-16T13:11:30.276Z,26.73
2018-10-16T13:13:59.516Z,26.95
2018-10-16T13:16:28.743Z,27.75
2018-10-16T13:18:57.981Z,27.66
2018-10-16T13:21:27.223Z,27.68
2018-10-16T13:23:56.482Z,27.42
2018-10-16T13:26:25.667Z,26.89
2018-10-16T13:28:54.954Z,24.67
2018-10-16T13:31:24.130Z,24.60
2018-10-16T13:33:53.368Z,24.85
2018-10-16T13:36:22.572Z,24.92
2018-10-16T13:38:51.839Z,24.68
2018-10-16T13:41:21.058Z,24.37
2018-10-16T13:43:50.256Z,24.09
2018-10-16T13:46:19.509Z,23.73
2018-10-16T13:48:48.711Z,23.78
2018-10-16T13:51:17.943Z,23.53
2018-10-16T13:53:47.140Z,23.44
2018-10-16T13:56:16.477Z,23.33
2018-10-16T13:58:45.590Z,22.77
2018-10-16T14:01:14.811Z,22.44
2018-10-16T14:03:44.043Z,22.27
2018-10-16T14:06:13.281Z,22.43
2018-10-16T14:08:42.492Z,22.45
2018-10-16T14:11:11.711Z,22.43
2018-10-16T14:13:40.940Z,22.58
2018-10-16T14:16:10.232Z,22.63
2018-10-16T14:18:39.383Z,22.32
2018-10-16T14:21:10.677Z,22.41
2018-10-16T14:23:40.383Z,22.17
2018-10-16T14:26:09.687Z,22.36
2018-10-16T14:28:38.870Z,21.94
2018-10-16T14:31:08.117Z,21.58
2018-10-16T14:33:37.358Z,21.67
2018-10-16T14:36:06.606Z,21.85
2018-10-16T14:38:35.834Z,21.64
2018-10-16T14:41:05.060Z,21.26
2018-10-16T14:43:34.299Z,21.03
2018-10-16T14:46:03.832Z,20.66
2018-10-16T14:48:33.015Z,20.77
2018-10-16T14:51:02.234Z,21.19
2018-10-16T14:53:31.453Z,20.81
2018-10-16T14:56:00.718Z,20.47
2018-10-16T14:58:29.945Z,20.41
2018-10-16T15:00:59.165Z,20.55
2018-10-16T15:03:28.401Z,20.45
2018-10-16T15:05:57.642Z,20.04
2018-10-16T15:08:26.867Z,19.95
2018-10-16T15:10:56.087Z,19.91
2018-10-16T15:13:25.310Z,19.94
2018-10-16T15:15:54.632Z,19.98
2018-10-16T15:18:23.913Z,19.93
2018-10-16T15:20:53.121Z,19.85
2018-10-16T15:23:22.355Z,19.76
2018-10-16T15:25:51.569Z,19.64
2018-10-16T15:28:20.791Z,19.53
2018-10-16T15:30:50.004Z,19.50
2018-10-16T15:33:19.222Z,19.25
2018-10-16T15:35:48.531Z,19.07
2018-10-16T15:38:17.974Z,18.83
2018-10-16T15:40:47.207Z,18.54
2018-10-16T15:43:16.410Z,18.25
2018-10-16T15:45:45.638Z,18.03
2018-10-16T15:48:14.955Z,17.83
2018-10-16T15:50:44.144Z,17.45
2018-10-16T15:53:13.299Z,17.12
2018-10-16T15:55:42.515Z,16.89
2018-10-16T15:58:11.795Z,16.62
2018-10-16T16:00:41.001Z,16.41
2018-10-16T16:03:10.230Z,16.10
2018-10-16T16:05:39.434Z,15.88
2018-10-16T16:08:08.737Z,15.66
2018-10-16T16:10:37.881Z,15.41
2018-10-16T16:13:08.009Z,15.17
2018-10-16T16:15:37.342Z,14.97
2018-10-16T16:18:06.765Z,14.74
2018-10-16T16:20:35.901Z,14.54
2018-10-16T16:23:05.139Z,14.33
2018-10-16T16:25:34.419Z,14.14
2018-10-16T16:28:03.648Z,13.97
2018-10-16T16:30:32.823Z,13.83
2018-10-16T16:33:02.048Z,13.71
2018-10-16T16:35:31.284Z,13.55
2018-10-16T16:38:00.505Z,13.40
2018-10-16T16:40:29.723Z,13.22
2018-10-16T16:42:59.022Z,13.13
2018-10-16T16:45:28.252Z,13.02
2018-10-16T16:47:57.502Z,12.88
2018-10-16T16:50:26.715Z,13.12
2018-10-16T16:52:55.996Z,12.78
2018-10-16T16:55:25.144Z,12.60
2018-10-16T16:57:54.402Z,12.43
2018-10-16T17:00:23.615Z,12.29
2018-10-16T17:02:52.870Z,12.15
2018-10-16T17:05:22.074Z,12.11
2018-10-16T17:07:51.359Z,12.01
2018-10-16T17:10:21.318Z,11.94
2018-10-16T17:12:50.585Z,11.78
2018-10-16T17:15:19.801Z,11.62
2018-10-16T17:17:49.079Z,11.55
2018-10-16T17:20:18.271Z,11.53
2018-10-16T17:22:47.558Z,11.43
2018-10-16T17:25:16.929Z,11.35
2018-10-16T17:27:46.088Z,11.19
2018-10-16T17:30:16.910Z,11.08
2018-10-16T17:32:46.542Z,11.08
2018-10-16T17:35:16.462Z,11.03
2018-10-16T17:37:45.720Z,10.91
2018-10-16T17:40:16.341Z,10.83
2018-10-16T17:42:45.798Z,10.77
2018-10-16T17:45:16.243Z,10.69
2018-10-16T17:47:45.672Z,10.68
2018-10-16T17:50:17.623Z,10.96
2018-10-16T17:52:46.944Z,10.82
2018-10-16T17:55:16.651Z,10.57
2018-10-16T17:57:45.921Z,10.41
2018-10-16T18:00:17.417Z,10.31
2018-10-16T18:02:47.506Z,10.41
2018-10-16T18:05:16.955Z,10.42
2018-10-16T18:07:46.342Z,10.13
2018-10-16T18:10:15.607Z,9.98
2018-10-16T18:12:45.850Z,9.85
2018-10-16T18:15:16.655Z,9.79
2018-10-16T18:17:45.879Z,9.73
2018-10-16T18:20:16.172Z,9.65
2018-10-16T18:22:45.853Z,9.56
2018-10-16T18:25:15.106Z,9.77
2018-10-16T18:27:45.093Z,9.67
2018-10-16T18:30:14.627Z,9.50
2018-10-16T18:32:44.122Z,9.38
2018-10-16T18:35:13.582Z,9.27
2018-10-16T18:37:43.655Z,9.27
2018-10-16T18:40:13.404Z,9.27
2018-10-16T18:42:42.805Z,9.46
2018-10-16T18:45:13.307Z,9.54
2018-10-16T18:47:42.466Z,9.18
2018-10-16T18:50:12.853Z,9.05
2018-10-16T18:52:42.850Z,8.90
2018-10-16T18:55:13.331Z,8.76
2018-10-16T18:57:42.639Z,8.69
2018-10-16T19:00:14.187Z,8.64
2018-10-16T19:02:43.422Z,8.55
2018-10-16T19:05:12.641Z,8.55
2018-10-16T19:07:42.420Z,8.51
2018-10-16T19:10:11.620Z,8.52
2018-10-16T19:12:41.665Z,8.49
2018-10-16T19:15:13.602Z,8.47
2018-10-16T19:17:43.739Z,8.50
2018-10-16T19:20:13.973Z,8.55
2018-10-16T19:22:43.882Z,8.37
2018-10-16T19:25:14.404Z,8.46
2018-10-16T19:27:43.688Z,8.24
2018-10-16T19:30:13.263Z,8.30
2018-10-16T19:32:42.493Z,8.15
2018-10-16T19:35:12.964Z,8.10
2018-10-16T19:37:42.482Z,8.05
2018-10-16T19:40:11.758Z,8.01
2018-10-16T19:42:41.135Z,7.95
2018-10-16T19:45:11.067Z,7.86
2018-10-16T19:47:40.184Z,7.85
2018-10-16T19:50:10.130Z,8.04
2018-10-16T19:52:39.402Z,7.87
2018-10-16T19:55:08.671Z,7.79
2018-10-16T19:57:37.894Z,7.72
2018-10-16T20:00:08.335Z,7.98
2018-10-16T20:02:37.590Z,8.15
2018-10-16T20:05:07.439Z,7.95
2018-10-16T20:07:36.655Z,7.65
2018-10-16T20:10:07.094Z,7.53
2018-10-16T20:12:36.598Z,7.45
2018-10-16T20:15:07.697Z,7.43
2018-10-16T20:17:37.163Z,7.62
2018-10-16T20:20:07.402Z,7.47
2018-10-16T20:22:36.630Z,7.39
2018-10-16T20:25:06.660Z,7.26
2018-10-16T20:27:35.815Z,7.27
2018-10-16T20:30:05.914Z,7.16
2018-10-16T20:32:35.347Z,7.34
2018-10-16T20:35:04.872Z,7.13
2018-10-16T20:37:34.108Z,7.13
2018-10-16T20:40:03.351Z,6.91
2018-10-16T20:42:32.606Z,6.88
2018-10-16T20:45:01.861Z,6.97
2018-10-16T20:47:31.151Z,6.99
2018-10-16T20:50:00.387Z,6.83
2018-10-16T20:52:29.619Z,6.67
2018-10-16T20:54:59.092Z,6.72
2018-10-16T20:57:28.289Z,6.66
2018-10-16T20:59:58.038Z,6.77
2018-10-16T21:02:27.290Z,6.82
2018-10-16T21:04:56.680Z,6.71
2018-10-16T21:07:25.845Z,6.96
2018-10-16T21:09:54.998Z,6.94
2018-10-16T21:12:24.215Z,6.80
2018-10-16T21:19:52.473Z,6.39
2018-10-16T21:22:21.686Z,6.46
2018-10-16T21:24:51.995Z,6.31
2018-10-16T21:27:21.198Z,6.26
2018-10-16T21:29:50.471Z,6.20
2018-10-16T21:32:19.694Z,6.49
2018-10-16T21:34:49.721Z,6.31
2018-10-16T21:37:19.004Z,6.19
2018-10-16T21:39:48.263Z,6.32
2018-10-16T21:42:17.485Z,6.14
2018-10-16T21:44:46.794Z,6.09
2018-10-16T21:47:16.075Z,6.05
2018-10-16T21:49:45.319Z,6.01
2018-10-16T21:52:14.527Z,5.93
2018-10-16T21:54:43.768Z,5.93
2018-10-16T21:57:12.986Z,5.88
2018-10-16T21:59:42.268Z,5.81
2018-10-16T22:02:16.735Z,5.77
2018-10-16T22:04:45.979Z,5.81
2018-10-16T22:07:15.361Z,5.93
2018-10-16T22:09:44.527Z,5.99
2018-10-16T22:12:13.795Z,5.79
2018-10-16T22:14:43.027Z,5.77
2018-10-16T22:17:12.408Z,5.73
2018-10-16T22:19:41.563Z,5.70
2018-10-16T22:22:10.817Z,5.64
2018-10-16T22:24:40.049Z,5.65
2018-10-16T22:27:09.296Z,5.58
2018-10-16T22:29:38.637Z,5.60
2018-10-16T22:32:07.875Z,5.64
2018-10-16T22:34:37.126Z,5.64
2018-10-16T22:37:06.440Z,5.50
2018-10-16T22:39:35.635Z,5.41
2018-10-16T22:42:04.962Z,5.31
2018-10-16T22:44:34.258Z,5.37
2018-10-16T22:47:03.523Z,5.32
2018-10-16T22:49:32.736Z,5.38
2018-10-16T22:52:02.048Z,5.28
2018-10-16T22:54:31.303Z,5.33
2018-10-16T22:57:00.599Z,5.29
2018-10-16T22:59:29.878Z,5.22
2018-10-16T23:01:59.277Z,5.23
2018-10-16T23:04:28.484Z,5.20
2018-10-16T23:06:57.761Z,5.14
2018-10-16T23:09:27.018Z,5.14
2018-10-16T23:11:56.271Z,5.19
2018-10-16T23:14:25.507Z,5.16
2018-10-16T23:16:54.783Z,5.09
2018-10-16T23:19:23.943Z,5.08
2018-10-16T23:21:53.201Z,5.07
2018-10-16T23:24:22.419Z,5.04
2018-10-16T23:26:51.770Z,4.97
2018-10-16T23:29:20.976Z,4.95
2018-10-16T23:31:50.198Z,5.03
2018-10-16T23:34:19.451Z,4.94
2018-10-16T23:36:48.667Z,4.96
2018-10-16T23:39:17.885Z,4.94
2018-10-16T23:41:47.106Z,4.88
2018-10-16T23:44:16.340Z,4.82
2018-10-16T23:46:45.602Z,4.83
2018-10-16T23:49:14.881Z,4.77
2018-10-16T23:51:44.083Z,4.67
2018-10-16T23:54:13.367Z,4.65
2018-10-16T23:56:42.594Z,4.81
2018-10-16T23:59:11.839Z,4.65
